Time;durP1;ratioP1;P1;durP2;ratioP2;P2;SDS_P1;SDS_P2;PMS_P1;PMS_P2;Temp;Humidity;BMP_temperature;BMP_pressure;BME280_temperature;BME280_humidity;BME280_pressure;Samples;Min_cycle;Max_cycle;Signal;HPM_P1;HPM_P2
2021/04/16 00:02:04;;;;;;;3.88;3.58;;;;;;;4.80;32.37;102190.53;4989006;28;98693;-75
2021/04/16 00:04:32;;;;;;;3.70;3.50;;;;;;;4.82;32.12;102189.84;5000658;28;98078;-76
2021/04/16 00:06:58;;;;;;;4.05;3.95;;;;;;;4.89;32.18;102189.44;4992056;28;98301;-76
2021/04/16 00:09:26;;;;;;;3.65;3.50;;;;;;;4.92;32.20;102183.44;4970427;28;99768;-75
2021/04/16 00:11:53;;;;;;;3.63;3.42;;;;;;;4.90;32.41;102185.97;4987520;28;97266;-76
2021/04/16 00:14:21;;;;;;;3.75;3.60;;;;;;;4.93;32.37;102185.28;4988701;28;97471;-76
2021/04/16 00:16:48;;;;;;;3.53;3.33;;;;;;;4.93;32.28;102185.28;4974741;28;99298;-76
2021/04/16 00:19:16;;;;;;;3.90;3.60;;;;;;;4.95;33.15;102174.03;4987594;28;99340;-75
2021/04/16 00:21:43;;;;;;;3.97;3.67;;;;;;;5.02;32.96;102172.69;4986622;28;97143;-75
2021/04/16 00:24:12;;;;;;;4.10;3.90;;;;;;;5.02;33.49;102167.41;5028299;27;96892;-75
2021/04/16 00:26:39;;;;;;;3.72;3.63;;;;;;;5.09;33.27;102165.31;5031604;27;99436;-74
2021/04/16 00:29:06;;;;;;;3.92;3.60;;;;;;;5.06;33.06;102167.72;4974828;28;99337;-74
2021/04/16 00:31:34;;;;;;;3.53;3.42;;;;;;;5.09;33.04;102162.69;4993222;28;97051;-74
2021/04/16 00:34:01;;;;;;;3.15;3.00;;;;;;;5.18;32.80;102172.91;4993238;28;97649;-75
2021/04/16 00:36:29;;;;;;;3.72;3.53;;;;;;;5.18;32.63;102171.19;4991682;28;98334;-75
2021/04/16 00:38:57;;;;;;;4.20;4.03;;;;;;;5.23;32.64;102168.81;5013767;27;99387;-73
2021/04/16 00:41:27;;;;;;;3.65;3.55;;;;;;;5.26;32.48;102165.50;4992720;28;96783;-74
2021/04/16 00:43:54;;;;;;;3.47;3.17;;;;;;;5.26;32.27;102162.84;4974243;28;97167;-73
2021/04/16 00:46:25;;;;;;;3.20;3.10;;;;;;;5.26;32.37;102166.41;4990696;28;97833;-73
2021/04/16 00:48:55;;;;;;;3.67;3.40;;;;;;;5.23;32.17;102162.66;4990469;28;99892;-73
2021/04/16 00:51:27;;;;;;;3.28;3.17;;;;;;;5.20;32.22;102156.38;4991460;28;96815;-73
2021/04/16 00:53:54;;;;;;;4.03;3.83;;;;;;;5.22;32.18;102164.38;4991543;28;97703;-73
2021/04/16 00:56:22;;;;;;;3.80;3.60;;;;;;;5.25;32.57;102161.03;4989096;28;99292;-73
2021/04/16 00:58:49;;;;;;;3.60;3.40;;;;;;;5.33;32.42;102158.06;4991831;28;97794;-74
2021/04/16 01:01:16;;;;;;;4.00;3.70;;;;;;;5.35;32.63;102155.50;4988159;28;99568;-74
2021/04/16 01:03:44;;;;;;;3.40;3.20;;;;;;;5.36;32.45;102155.59;4995955;28;96968;-74
2021/04/16 01:06:11;;;;;;;4.03;3.83;;;;;;;5.38;32.26;102156.63;4989434;28;99600;-74
2021/04/16 01:08:38;;;;;;;3.85;3.67;;;;;;;5.42;32.09;102153.38;4992315;28;97522;-74
2021/04/16 01:11:06;;;;;;;3.63;3.42;;;;;;;5.43;32.04;102159.56;4994425;28;97439;-73
2021/04/16 01:13:35;;;;;;;3.60;3.45;;;;;;;5.34;32.21;102151.97;4990294;28;96908;-73
2021/04/16 01:16:03;;;;;;;3.63;3.42;;;;;;;5.30;32.23;102147.31;4993540;28;100316;-73
2021/04/16 01:18:33;;;;;;;3.20;3.10;;;;;;;5.29;32.14;102150.75;5004481;28;98441;-75
2021/04/16 01:21:03;;;;;;;4.03;3.72;;;;;;;5.30;32.07;102142.03;4995026;28;96776;-73
2021/04/16 01:23:38;;;;;;;4.20;3.90;;;;;;;5.30;31.76;102141.13;4990414;28;97342;-74
2021/04/16 01:26:07;;;;;;;3.58;3.38;;;;;;;5.33;32.00;102143.94;4987869;28;97689;-73
2021/04/16 01:28:34;;;;;;;3.60;3.42;;;;;;;5.37;31.99;102144.25;4991500;28;96734;-74
2021/04/16 01:31:04;;;;;;;3.88;3.60;;;;;;;5.39;31.78;102153.19;4974347;28;98598;-74
2021/04/16 01:33:32;;;;;;;3.80;3.60;;;;;;;5.37;31.95;102149.53;4989739;28;96957;-75
2021/04/16 01:36:01;;;;;;;3.80;3.63;;;;;;;5.38;31.88;102146.06;4974211;28;99864;-74
2021/04/16 01:38:28;;;;;;;3.22;3.13;;;;;;;5.41;31.62;102148.00;4988353;28;97831;-73
2021/04/16 01:40:56;;;;;;;4.03;3.53;;;;;;;5.39;31.71;102144.34;4989361;28;98585;-74
2021/04/16 01:43:27;;;;;;;4.00;3.80;;;;;;;5.40;31.64;102146.16;4995164;28;97296;-75
2021/04/16 01:46:03;;;;;;;3.50;3.30;;;;;;;5.32;31.83;102140.38;4972641;28;100116;-73
2021/04/16 01:48:35;;;;;;;3.50;3.28;;;;;;;5.24;32.10;102141.63;4990463;28;97738;-73
2021/04/16 01:51:03;;;;;;;3.45;3.35;;;;;;;5.23;31.70;102146.00;4992149;28;96844;-73
2021/04/16 01:53:30;;;;;;;3.00;2.90;;;;;;;5.23;31.72;102141.56;4994075;28;97126;-73
2021/04/16 01:55:58;;;;;;;4.00;3.50;;;;;;;5.20;31.67;102142.25;4973302;28;98451;-73
2021/04/16 01:58:25;;;;;;;3.13;3.03;;;;;;;5.18;31.76;102141.25;4988017;28;100140;-74
2021/04/16 02:00:53;;;;;;;3.78;3.58;;;;;;;5.17;31.77;102145.59;5020443;27;97288;-73
2021/04/16 02:03:20;;;;;;;3.67;3.38;;;;;;;5.21;31.72;102144.06;4992051;28;97764;-74
2021/04/16 02:05:47;;;;;;;3.63;3.42;;;;;;;5.22;31.76;102143.25;4980181;28;99308;-74
2021/04/16 02:08:14;;;;;;;3.97;3.60;;;;;;;5.18;31.86;102136.88;4999555;28;98037;-74
2021/04/16 02:10:42;;;;;;;4.00;3.70;;;;;;;5.22;31.66;102143.25;4992353;28;98652;-73
2021/04/16 02:13:08;;;;;;;3.80;3.53;;;;;;;5.21;31.66;102136.16;4971881;28;96897;-74
2021/04/16 02:15:36;;;;;;;3.70;3.50;;;;;;;5.24;31.69;102131.09;4990559;28;97842;-73
2021/04/16 02:18:04;;;;;;;3.95;3.70;;;;;;;5.28;31.62;102138.38;4993896;28;100640;-73
2021/04/16 02:20:32;;;;;;;3.20;3.10;;;;;;;5.29;31.57;102128.72;4992236;28;97362;-74
2021/04/16 02:22:59;;;;;;;3.45;3.33;;;;;;;5.27;31.59;102131.28;4991332;28;98154;-74
2021/04/16 02:25:28;;;;;;;3.72;3.53;;;;;;;5.33;31.67;102126.38;4975293;28;98941;-72
2021/04/16 02:27:55;;;;;;;3.47;3.33;;;;;;;5.35;31.48;102131.75;5022325;27;100461;-72
2021/04/16 02:30:25;;;;;;;3.35;3.15;;;;;;;5.38;31.44;102124.94;4991039;28;96712;-73
2021/04/16 02:32:53;;;;;;;3.38;3.28;;;;;;;5.37;31.63;102125.78;5000095;28;96895;-73
2021/04/16 02:35:20;;;;;;;3.42;3.22;;;;;;;5.36;31.54;102130.97;4990913;28;99195;-72
2021/04/16 02:37:47;;;;;;;8.30;3.63;;;;;;;5.38;31.64;102127.59;4986139;28;101528;-73
2021/04/16 02:40:18;;;;;;;4.07;3.85;;;;;;;5.41;31.39;102125.13;4994559;28;96824;-73
2021/04/16 02:42:45;;;;;;;4.25;3.70;;;;;;;5.43;31.50;102123.50;4992634;28;97791;-72
2021/04/16 02:45:14;;;;;;;4.15;3.95;;;;;;;5.42;31.25;102121.69;4987712;28;97912;-73
2021/04/16 02:47:40;;;;;;;3.05;2.95;;;;;;;5.39;31.49;102123.22;4987772;28;98701;-73
2021/04/16 02:50:13;;;;;;;3.40;3.28;;;;;;;5.41;31.58;102122.50;4986052;28;97461;-72
2021/04/16 02:52:40;;;;;;;3.22;3.00;;;;;;;5.43;31.31;102122.63;4987799;28;97840;-73
2021/04/16 02:55:08;;;;;;;3.47;3.28;;;;;;;5.46;31.14;102123.72;4990204;28;98158;-74
2021/04/16 02:57:35;;;;;;;5.80;3.50;;;;;;;5.45;31.12;102132.44;4987430;28;100078;-72
2021/04/16 03:00:03;;;;;;;4.15;3.95;;;;;;;5.40;31.23;102112.75;4988769;28;97164;-74
2021/04/16 03:02:30;;;;;;;3.50;3.22;;;;;;;5.43;31.35;102119.97;4990930;28;97906;-73
2021/04/16 03:04:57;;;;;;;3.67;3.47;;;;;;;5.40;31.21;102111.84;4989255;28;101076;-74
2021/04/16 03:07:25;;;;;;;4.07;3.70;;;;;;;5.38;31.64;102111.75;4989842;28;98001;-75
2021/04/16 03:09:52;;;;;;;3.78;3.45;;;;;;;5.41;31.39;102108.41;4987350;28;97792;-74
2021/04/16 03:12:18;;;;;;;3.60;3.40;;;;;;;5.42;31.37;102110.22;4997074;28;98597;-74
2021/04/16 03:14:45;;;;;;;3.60;3.38;;;;;;;5.41;31.14;102111.94;5021373;27;99086;-74
2021/04/16 03:17:13;;;;;;;3.72;3.53;;;;;;;5.43;31.36;102110.31;4992326;28;100196;-75
2021/04/16 03:19:40;;;;;;;3.70;3.50;;;;;;;5.46;31.16;102110.53;4990222;28;96752;-75
2021/04/16 03:22:06;;;;;;;3.25;3.15;;;;;;;5.44;31.38;102109.50;4987042;28;97163;-76
2021/04/16 03:24:35;;;;;;;3.58;3.30;;;;;;;5.41;31.40;102111.94;5018866;27;100329;-74
2021/04/16 03:27:02;;;;;;;3.85;3.65;;;;;;;5.41;31.16;102111.94;4990099;28;97680;-76
2021/04/16 03:29:28;;;;;;;3.22;3.05;;;;;;;5.40;31.27;102110.13;4988855;28;97004;-75
2021/04/16 03:31:55;;;;;;;3.42;3.33;;;;;;;5.45;31.09;102119.22;4989863;28;97185;-75
2021/04/16 03:34:22;;;;;;;3.95;3.65;;;;;;;5.47;31.07;102119.31;4993287;28;97569;-76
2021/04/16 03:36:50;;;;;;;3.42;3.30;;;;;;;5.46;31.18;102113.16;5032064;27;100558;-75
2021/04/16 03:39:17;;;;;;;4.03;3.83;;;;;;;5.52;31.04;102118.78;4989052;28;96829;-75
2021/04/16 03:41:44;;;;;;;3.75;3.45;;;;;;;5.56;31.16;102119.91;4991651;28;97128;-75
2021/04/16 03:44:11;;;;;;;4.07;3.90;;;;;;;5.59;31.17;102115.75;4986917;28;100532;-74
2021/04/16 03:46:39;;;;;;;4.03;3.83;;;;;;;5.61;30.99;102122.00;4987804;28;99815;-74
2021/04/16 03:49:06;;;;;;;3.65;3.15;;;;;;;5.55;31.13;102119.00;4991343;28;97746;-74
2021/04/16 03:51:47;;;;;;;3.22;3.03;;;;;;;5.59;31.38;102114.84;5005234;28;97948;-75
2021/04/16 03:54:14;;;;;;;6.32;5.35;;;;;;;5.62;30.99;102115.94;4992399;28;97522;-75
2021/04/16 03:56:40;;;;;;;4.13;3.83;;;;;;;5.65;31.16;102120.50;4970949;28;100597;-76
2021/04/16 03:59:08;;;;;;;3.80;3.58;;;;;;;5.63;31.05;102117.75;4992553;28;98245;-76
2021/04/16 04:01:35;;;;;;;4.07;3.78;;;;;;;5.61;30.94;102121.13;5034845;27;97375;-77
2021/04/16 04:04:03;;;;;;;3.88;3.67;;;;;;;5.64;31.06;102118.66;5010428;28;100013;-76
2021/04/16 04:06:30;;;;;;;3.83;3.63;;;;;;;5.65;30.99;102116.09;5011321;28;98083;-77
2021/04/16 04:08:58;;;;;;;11.43;8.15;;;;;;;5.66;30.94;102112.66;4992247;28;99262;-77
2021/04/16 04:11:25;;;;;;;3.92;3.72;;;;;;;5.70;30.95;102125.25;5007508;28;96635;-75
2021/04/16 04:13:53;;;;;;;22.55;10.68;;;;;;;5.73;30.81;102119.22;5011900;28;98196;-74
2021/04/16 04:16:21;;;;;;;6.00;4.68;;;;;;;5.74;31.01;102121.97;5005425;28;98375;-77
2021/04/16 04:18:48;;;;;;;4.28;4.05;;;;;;;5.81;30.96;102113.59;5003381;28;97185;-76
2021/04/16 04:21:15;;;;;;;3.45;3.25;;;;;;;5.85;30.87;102105.03;5002412;28;97305;-76
2021/04/16 04:23:42;;;;;;;3.60;3.42;;;;;;;5.86;30.74;102111.25;5018932;27;100801;-77
2021/04/16 04:26:09;;;;;;;3.50;3.35;;;;;;;5.90;30.70;102113.25;5000599;28;98232;-76
2021/04/16 04:28:38;;;;;;;3.92;3.60;;;;;;;5.91;30.78;102110.72;4997006;28;99303;-77
2021/04/16 04:31:09;;;;;;;3.72;3.42;;;;;;;5.93;30.92;102114.34;5008368;28;97854;-76
2021/04/16 04:33:37;;;;;;;4.10;3.80;;;;;;;5.95;30.84;102115.38;5006338;28;97864;-77
2021/04/16 04:36:05;;;;;;;33.35;13.77;;;;;;;5.97;30.71;102112.81;5007658;28;97615;-76
2021/04/16 04:38:32;;;;;;;8.55;6.45;;;;;;;5.97;30.81;102121.66;5021775;27;97662;-77
2021/04/16 04:40:59;;;;;;;4.50;4.10;;;;;;;5.98;30.71;102118.19;5011038;28;97432;-76
2021/04/16 04:43:26;;;;;;;3.97;3.67;;;;;;;5.96;30.91;102116.25;5011768;28;97974;-76
2021/04/16 04:45:53;;;;;;;3.92;3.53;;;;;;;6.01;30.56;102114.84;4993507;28;100634;-77
2021/04/16 04:48:20;;;;;;;4.05;3.75;;;;;;;6.03;30.52;102116.72;4999726;28;97622;-78
2021/04/16 04:50:48;;;;;;;3.50;3.30;;;;;;;6.06;30.61;102113.38;5006016;28;96902;-78
2021/04/16 04:53:15;;;;;;;10.25;6.90;;;;;;;6.04;30.85;102113.28;5001658;28;99222;-78
2021/04/16 04:55:41;;;;;;;3.92;3.40;;;;;;;6.01;30.80;102117.47;4999532;28;100579;-78
2021/04/16 04:58:09;;;;;;;3.85;3.65;;;;;;;6.00;30.62;102123.56;4998053;28;97382;-78
2021/04/16 05:00:35;;;;;;;3.47;3.28;;;;;;;5.95;30.93;102123.28;4995734;28;97371;-77
2021/04/16 05:03:03;;;;;;;3.40;3.20;;;;;;;5.93;30.88;102116.09;4992105;28;98668;-76
2021/04/16 05:05:32;;;;;;;3.75;3.45;;;;;;;5.91;30.93;102126.56;4992598;28;98874;-76
2021/04/16 05:08:00;;;;;;;3.85;3.58;;;;;;;5.92;30.79;102120.44;4992053;28;97531;-77
2021/04/16 05:10:27;;;;;;;5.07;3.33;;;;;;;5.93;30.72;102116.09;4986102;28;98174;-75
2021/04/16 05:12:54;;;;;;;3.53;3.33;;;;;;;5.96;30.66;102124.19;4997277;28;98787;-77
2021/04/16 05:15:21;;;;;;;3.80;3.50;;;;;;;5.96;30.82;102125.09;4992788;28;97918;-77
2021/04/16 05:17:48;;;;;;;3.95;3.53;;;;;;;6.02;30.68;102130.78;4975269;28;97171;-77
2021/04/16 05:20:16;;;;;;;3.90;3.50;;;;;;;6.05;30.87;102127.41;4992263;28;97281;-76
2021/04/16 05:22:43;;;;;;;4.10;3.85;;;;;;;6.06;30.74;102131.88;5029207;27;99665;-76
2021/04/16 05:25:11;;;;;;;3.90;3.50;;;;;;;6.06;30.63;102126.59;4994623;28;99425;-76
2021/04/16 05:27:38;;;;;;;5.78;3.92;;;;;;;6.08;30.60;102120.59;4995313;28;97124;-76
2021/04/16 05:30:07;;;;;;;4.70;3.60;;;;;;;6.10;30.62;102126.84;4988105;28;98228;-76
2021/04/16 05:32:34;;;;;;;13.20;8.13;;;;;;;6.12;30.68;102122.56;4994995;28;99375;-77
2021/04/16 05:35:02;;;;;;;5.70;4.75;;;;;;;6.15;30.81;102117.47;4997109;28;98203;-76
2021/04/16 05:37:28;;;;;;;4.68;3.80;;;;;;;6.15;30.54;102120.13;4995459;28;96769;-76
2021/04/16 05:39:56;;;;;;;3.75;3.45;;;;;;;6.15;30.47;102130.69;4977465;28;97464;-76
2021/04/16 05:42:23;;;;;;;3.75;3.55;;;;;;;6.19;30.66;102129.16;4994555;28;99506;-76
2021/04/16 05:44:50;;;;;;;3.53;3.30;;;;;;;6.20;30.67;102134.53;4994321;28;99603;-77
2021/04/16 05:47:17;;;;;;;4.03;3.72;;;;;;;6.22;30.76;102129.31;4989537;28;96958;-76
2021/04/16 05:49:44;;;;;;;4.00;3.80;;;;;;;6.27;30.42;102135.81;4960012;28;97898;-77
2021/04/16 05:52:11;;;;;;;3.58;3.40;;;;;;;6.28;30.45;102126.16;4990834;28;99053;-77
2021/04/16 05:54:38;;;;;;;4.18;3.90;;;;;;;6.31;30.77;102131.63;4992062;28;97461;-77
2021/04/16 05:57:06;;;;;;;3.90;3.38;;;;;;;6.36;30.41;102124.91;4991993;28;98186;-77
2021/04/16 05:59:34;;;;;;;5.07;4.10;;;;;;;6.37;30.51;102130.28;4993163;28;97291;-76
2021/04/16 06:02:01;;;;;;;6.38;3.35;;;;;;;6.37;30.42;102129.34;4993499;28;99401;-77
2021/04/16 06:04:29;;;;;;;3.92;3.63;;;;;;;6.39;30.67;102133.00;4989110;28;99580;-76
2021/04/16 06:07:16;;;;;;;4.38;3.50;;;;;;;6.41;30.49;102137.59;4973251;28;98247;-76
2021/04/16 06:09:42;;;;;;;4.28;3.92;;;;;;;6.44;30.45;102134.19;4991572;28;97280;-75
2021/04/16 06:12:10;;;;;;;14.60;8.07;;;;;;;6.46;30.48;102129.91;4995240;28;98887;-77
2021/04/16 06:14:40;;;;;;;10.13;5.50;;;;;;;6.45;30.20;102133.38;4995528;28;99251;-77
2021/04/16 06:17:07;;;;;;;22.63;13.40;;;;;;;6.52;30.50;102130.28;5011094;27;97295;-76
2021/04/16 06:19:35;;;;;;;5.72;5.22;;;;;;;6.56;30.43;102130.53;4995691;28;97021;-77
2021/04/16 06:22:05;;;;;;;3.15;3.00;;;;;;;6.58;30.20;102130.66;4996486;28;101118;-76
2021/04/16 06:24:32;;;;;;;3.00;2.90;;;;;;;6.54;30.40;102133.94;4991117;28;99246;-76
2021/04/16 06:26:59;;;;;;;4.55;3.55;;;;;;;6.52;30.50;102135.56;4994167;28;98543;-78
2021/04/16 06:29:29;;;;;;;3.40;3.10;;;;;;;6.53;30.39;102133.00;4996937;28;97580;-78
2021/04/16 06:31:58;;;;;;;3.88;2.88;;;;;;;6.54;30.06;102129.56;4995385;28;98907;-77
2021/04/16 06:34:25;;;;;;;3.65;3.45;;;;;;;6.56;30.39;102140.22;4992382;28;99240;-77
2021/04/16 06:36:51;;;;;;;3.25;3.15;;;;;;;6.59;30.47;102121.88;4998379;28;98082;-78
2021/04/16 06:39:18;;;;;;;3.15;2.97;;;;;;;6.62;30.32;102124.69;4995694;28;97328;-77
2021/04/16 06:41:47;;;;;;;3.58;3.38;;;;;;;6.61;30.27;102121.16;4976428;28;99614;-76
2021/04/16 06:44:17;;;;;;;9.35;6.65;;;;;;;6.59;30.52;102121.88;4991515;28;98031;-77
2021/04/16 06:46:45;;;;;;;3.75;3.55;;;;;;;6.65;30.41;102124.88;4996544;28;96646;-76
2021/04/16 06:49:15;;;;;;;3.53;3.22;;;;;;;6.67;29.99;102118.84;5009692;27;97107;-77
2021/04/16 06:51:44;;;;;;;3.30;3.00;;;;;;;6.70;30.33;102124.34;4994487;28;98778;-76
2021/04/16 06:54:15;;;;;;;3.55;3.35;;;;;;;6.68;30.05;102127.69;4996636;28;97844;-78
2021/04/16 06:56:45;;;;;;;3.70;3.40;;;;;;;6.75;30.02;102124.59;4999154;28;96943;-77
2021/04/16 06:59:16;;;;;;;5.07;3.25;;;;;;;6.78;30.23;102122.13;4999372;28;98162;-76
2021/04/16 07:01:46;;;;;;;3.53;3.33;;;;;;;6.84;30.07;102114.53;4999106;28;97991;-75
2021/04/16 07:04:25;;;;;;;2.90;2.80;;;;;;;6.88;29.98;102116.53;4994427;28;97510;-77
2021/04/16 07:06:53;;;;;;;3.08;2.88;;;;;;;6.91;30.01;102119.34;4989979;28;96897;-76
2021/04/16 07:09:24;;;;;;;30.65;14.38;;;;;;;6.95;30.11;102118.69;4990817;28;96902;-76
2021/04/16 07:11:55;;;;;;;5.70;5.13;;;;;;;6.95;29.91;102121.34;4994159;28;97642;-77
2021/04/16 07:14:27;;;;;;;3.70;3.50;;;;;;;6.97;30.02;102114.41;4991588;28;97592;-76
2021/04/16 07:16:54;;;;;;;3.20;3.00;;;;;;;7.00;29.98;102125.16;5004800;28;96992;-76
2021/04/16 07:19:24;;;;;;;2.97;2.88;;;;;;;7.03;29.88;102117.41;4990475;28;97822;-76
2021/04/16 07:21:56;;;;;;;3.47;3.10;;;;;;;6.99;30.01;102118.06;5011451;27;99572;-76
2021/04/16 07:24:24;;;;;;;3.95;3.58;;;;;;;6.99;30.03;102118.06;4993752;28;98690;-76
2021/04/16 07:26:53;;;;;;;3.13;2.92;;;;;;;6.99;30.05;102121.63;4989969;28;97705;-76
2021/04/16 07:29:39;;;;;;;19.73;9.15;;;;;;;7.04;30.00;102122.78;4993810;28;98163;-77
2021/04/16 07:32:07;;;;;;;7.28;4.32;;;;;;;7.10;29.97;102115.19;4994025;28;99416;-77
2021/04/16 07:34:44;;;;;;;4.82;3.60;;;;;;;7.14;29.79;102124.22;4993130;28;97397;-76
2021/04/16 07:37:15;;;;;;;3.60;3.40;;;;;;;7.16;29.73;102126.09;4975161;28;97475;-77
2021/04/16 07:39:47;;;;;;;5.38;3.10;;;;;;;7.25;29.77;102121.31;4990210;28;97289;-77
2021/04/16 07:42:22;;;;;;;3.38;3.17;;;;;;;7.18;30.05;102119.16;4990046;28;98047;-76
2021/04/16 07:45:09;;;;;;;3.47;3.38;;;;;;;7.13;29.74;102120.66;4995116;28;97737;-78
2021/04/16 07:47:37;;;;;;;3.20;2.80;;;;;;;7.15;30.04;102128.66;4994726;28;97808;-77
2021/04/16 07:50:08;;;;;;;3.50;3.30;;;;;;;7.19;29.96;102121.00;4992923;28;96841;-77
2021/04/16 07:52:37;;;;;;;3.58;3.40;;;;;;;7.24;30.03;102114.22;5031726;27;98702;-78
2021/04/16 07:55:18;;;;;;;2.97;2.88;;;;;;;7.30;29.89;102113.66;4997118;28;97653;-77
2021/04/16 07:58:01;;;;;;;3.28;3.17;;;;;;;7.36;30.20;102114.00;4980316;28;97028;-77
2021/04/16 08:00:35;;;;;;;4.15;2.90;;;;;;;7.42;30.10;102114.34;4996774;28;97148;-78
2021/04/16 08:03:10;;;;;;;3.15;2.95;;;;;;;7.47;29.48;102112.88;5011498;28;100222;-77
2021/04/16 08:05:41;;;;;;;62.42;25.58;;;;;;;7.54;29.82;102115.03;4999128;28;98762;-78
2021/04/16 08:08:12;;;;;;;11.20;5.90;;;;;;;7.59;29.94;102124.13;5000243;28;97325;-76
2021/04/16 08:10:40;;;;;;;2.92;2.83;;;;;;;7.65;29.85;102120.91;4993700;28;97322;-76
2021/04/16 08:13:10;;;;;;;2.88;2.78;;;;;;;7.70;29.66;102125.63;4977140;28;99554;-76
2021/04/16 08:15:37;;;;;;;3.75;3.45;;;;;;;7.70;29.49;102122.97;4988432;28;97958;-76
2021/04/16 08:18:13;;;;;;;3.70;3.35;;;;;;;7.75;29.44;102132.09;5022320;27;97084;-77
2021/04/16 08:20:52;;;;;;;6.53;2.90;;;;;;;7.81;29.69;102131.50;5005718;28;98087;-77
2021/04/16 08:23:19;;;;;;;3.42;2.88;;;;;;;7.83;29.47;102128.13;4988003;28;99336;-77
2021/04/16 08:25:52;;;;;;;4.57;2.80;;;;;;;7.84;29.35;102121.97;4987222;28;99312;-76
2021/04/16 08:28:25;;;;;;;10.30;4.93;;;;;;;7.86;29.72;102119.41;4989537;28;96858;-77
2021/04/16 08:30:56;;;;;;;5.53;3.97;;;;;;;7.88;29.56;102120.41;5011404;27;96872;-77
2021/04/16 08:33:27;;;;;;;3.25;3.05;;;;;;;7.95;29.53;102117.22;4991464;28;97768;-77
2021/04/16 08:36:01;;;;;;;4.00;2.75;;;;;;;7.94;29.54;102112.78;4992212;28;99210;-77
2021/04/16 08:38:33;;;;;;;2.78;2.58;;;;;;;7.99;29.62;102113.94;4993876;28;97001;-76
2021/04/16 08:41:02;;;;;;;5.45;3.17;;;;;;;8.03;29.32;102111.53;5003845;28;97186;-76
2021/04/16 08:43:34;;;;;;;4.43;2.85;;;;;;;8.11;29.37;102122.53;4991242;28;98076;-77
2021/04/16 08:46:06;;;;;;;2.67;2.47;;;;;;;8.14;29.19;102117.38;4996164;28;97720;-77
2021/04/16 08:48:38;;;;;;;4.22;2.78;;;;;;;8.16;29.13;102116.66;4979499;28;96810;-77
2021/04/16 08:51:09;;;;;;;4.10;3.05;;;;;;;8.20;29.22;102115.94;4995437;28;97971;-77
2021/04/16 08:53:38;;;;;;;3.25;2.78;;;;;;;8.28;29.04;102121.66;5029055;27;101040;-76
2021/04/16 08:56:15;;;;;;;3.03;2.83;;;;;;;8.38;29.11;102123.97;5003318;28;98105;-77
2021/04/16 08:58:42;;;;;;;2.72;2.63;;;;;;;8.44;29.05;102113.66;5032579;27;96910;-77
2021/04/16 09:01:33;;;;;;;2.97;2.88;;;;;;;8.56;28.93;102124.94;5014628;27;97039;-77
2021/04/16 09:04:14;;;;;;;3.50;3.20;;;;;;;8.66;28.45;102118.34;4997450;28;97724;-77
2021/04/16 09:06:48;;;;;;;3.63;3.08;;;;;;;8.72;28.78;102113.31;5026645;27;98028;-78
2021/04/16 09:09:40;;;;;;;3.22;3.03;;;;;;;8.81;28.44;102109.38;4990156;28;97678;-78
2021/04/16 09:12:10;;;;;;;2.53;2.42;;;;;;;8.88;28.50;102107.94;4990514;28;97869;-77
2021/04/16 09:14:58;;;;;;;3.47;3.15;;;;;;;9.00;28.33;102111.19;4992422;28;100787;-77
2021/04/16 09:18:05;;;;;;;3.20;2.97;;;;;;;9.14;27.86;102116.34;4988507;28;100118;-77
2021/04/16 09:21:05;;;;;;;3.00;2.80;;;;;;;9.22;27.85;102111.41;4991681;28;97605;-77
2021/04/16 09:24:00;;;;;;;2.85;2.53;;;;;;;9.32;27.70;102111.00;4995423;28;97200;-77
2021/04/16 09:27:09;;;;;;;4.43;4.00;;;;;;;9.39;27.53;102112.19;4991156;28;99540;-77
2021/04/16 09:29:48;;;;;;;3.13;2.92;;;;;;;9.46;28.04;102114.31;4990455;28;98979;-77
2021/04/16 09:32:48;;;;;;;3.83;3.00;;;;;;;9.58;27.20;102097.22;5009538;27;98062;-77
2021/04/16 09:35:57;;;;;;;2.95;2.85;;;;;;;9.60;27.72;102106.16;5004839;28;97399;-77
2021/04/16 09:38:44;;;;;;;5.55;2.58;;;;;;;9.55;28.06;102106.78;4970921;28;99652;-77
2021/04/16 09:41:32;;;;;;;3.22;2.90;;;;;;;9.51;27.10;102103.09;4974222;28;100455;-77
2021/04/16 09:44:01;;;;;;;3.00;2.80;;;;;;;9.57;27.50;102103.34;5020507;27;97196;-77
2021/04/16 09:46:46;;;;;;;2.95;2.75;;;;;;;9.65;26.28;102103.69;4987976;28;97571;-76
2021/04/16 09:49:31;;;;;;;6.90;5.90;;;;;;;9.69;27.46;102111.00;5012073;27;100863;-77
2021/04/16 09:52:00;;;;;;;6.57;4.93;;;;;;;9.73;27.50;102100.56;4975671;28;100418;-77
2021/04/16 09:54:37;;;;;;;2.80;2.70;;;;;;;9.82;27.47;102100.06;4986978;28;96878;-77
2021/04/16 09:57:41;;;;;;;3.08;2.83;;;;;;;9.89;27.05;102095.09;4991111;28;97044;-77
2021/04/16 10:00:34;;;;;;;2.97;2.65;;;;;;;9.90;26.29;102096.91;4997904;28;100070;-76
2021/04/16 10:03:25;;;;;;;3.13;2.97;;;;;;;9.96;26.91;102102.50;5000379;27;98650;-77
2021/04/16 10:05:53;;;;;;;3.00;2.80;;;;;;;10.02;27.46;102088.56;4973512;28;97849;-77
2021/04/16 10:08:26;;;;;;;15.80;9.07;;;;;;;10.09;27.27;102095.97;4995315;28;98109;-77
2021/04/16 10:10:53;;;;;;;4.50;4.10;;;;;;;10.13;27.25;102093.53;4993079;28;99293;-77
2021/04/16 10:13:23;;;;;;;3.35;3.15;;;;;;;10.10;27.26;102096.03;4994471;28;98800;-77
2021/04/16 10:15:52;;;;;;;3.10;2.70;;;;;;;10.14;27.23;102095.34;5018983;27;97720;-76
2021/04/16 10:18:24;;;;;;;3.13;2.80;;;;;;;10.16;27.21;102100.72;4974364;28;97527;-77
2021/04/16 10:20:59;;;;;;;2.83;2.72;;;;;;;10.17;26.89;102086.59;4992634;28;99419;-77
2021/04/16 10:23:30;;;;;;;2.70;2.60;;;;;;;10.16;27.10;102087.41;5001874;28;97692;-77
2021/04/16 12:38:13;;;;;;;2.80;2.60;;;;;;;13.41;24.30;102013.31;5007107;27;101267;-75
2021/04/16 12:40:40;;;;;;;3.22;2.70;;;;;;;13.38;24.38;102021.25;4985345;28;99416;-76
2021/04/16 12:43:07;;;;;;;3.42;2.80;;;;;;;13.36;24.16;102020.28;4997561;28;96676;-77
2021/04/16 12:45:34;;;;;;;5.28;2.78;;;;;;;13.30;24.35;102022.78;4989291;28;96942;-75
2021/04/16 12:48:02;;;;;;;2.90;2.70;;;;;;;13.30;24.35;102022.78;5003411;28;98977;-76
2021/04/16 12:50:32;;;;;;;2.30;2.20;;;;;;;13.21;24.28;102013.56;4973304;28;101403;-75
2021/04/16 12:52:59;;;;;;;2.60;2.40;;;;;;;13.15;24.38;102012.53;4986519;28;96725;-76
2021/04/16 12:55:29;;;;;;;2.53;2.42;;;;;;;13.09;24.49;102007.00;4989221;28;96958;-77
2021/04/16 12:57:59;;;;;;;2.67;2.58;;;;;;;13.02;24.47;102014.81;4986231;28;100019;-78
2021/04/16 13:00:30;;;;;;;2.72;2.53;;;;;;;12.97;24.50;102011.03;4989939;28;99803;-77
2021/04/16 13:03:01;;;;;;;3.55;2.80;;;;;;;12.91;24.40;102016.19;4971385;28;97266;-77
2021/04/16 13:05:32;;;;;;;2.47;2.42;;;;;;;12.97;24.44;102011.94;5009408;28;97846;-76
2021/04/16 13:08:05;;;;;;;2.85;2.72;;;;;;;13.02;24.29;102010.34;4975819;28;99301;-75
2021/04/16 13:10:33;;;;;;;2.55;2.10;;;;;;;13.06;24.36;102011.34;4991579;28;99532;-77
2021/04/16 13:13:00;;;;;;;3.72;2.90;;;;;;;13.41;23.92;102005.28;5012994;27;97816;-75
2021/04/16 13:15:29;;;;;;;10.93;7.68;;;;;;;13.99;23.85;102002.47;4980943;28;97009;-76
2021/04/16 13:18:01;;;;;;;3.30;3.10;;;;;;;14.22;23.13;102000.41;4996979;28;97336;-77
2021/04/16 13:20:36;;;;;;;2.97;2.78;;;;;;;14.27;23.06;102002.34;4980636;28;99367;-78
2021/04/16 13:23:12;;;;;;;2.30;2.20;;;;;;;14.37;23.06;102000.81;4999663;28;97378;-77
2021/04/16 13:25:42;;;;;;;2.10;2.00;;;;;;;14.61;22.52;101999.66;4982311;28;97133;-78
2021/04/16 13:28:08;;;;;;;2.60;2.42;;;;;;;14.80;22.55;101992.94;4998858;28;98829;-77
2021/04/16 13:30:35;;;;;;;2.60;2.50;;;;;;;14.77;22.69;101987.53;4989073;28;101073;-75
2021/04/16 13:33:07;;;;;;;2.45;2.35;;;;;;;14.71;22.34;101998.09;5008700;27;97002;-74
2021/04/16 13:35:36;;;;;;;2.60;2.20;;;;;;;14.62;22.50;101987.16;4975391;28;96960;-75
2021/04/16 13:38:05;;;;;;;2.50;2.40;;;;;;;14.43;22.79;101990.22;4974736;28;99310;-75
2021/04/16 13:40:33;;;;;;;2.95;2.72;;;;;;;14.53;22.72;101986.91;4994243;28;97571;-76
2021/04/16 13:43:01;;;;;;;2.83;2.20;;;;;;;14.72;22.46;101983.81;4993641;28;97017;-75
2021/04/16 13:45:28;;;;;;;2.63;2.40;;;;;;;15.16;22.22;101972.31;5006904;27;97498;-76
2021/04/16 13:47:56;;;;;;;2.40;2.30;;;;;;;15.49;21.82;101978.41;4989976;28;97888;-76
2021/04/16 13:50:24;;;;;;;2.63;2.30;;;;;;;16.04;21.21;101970.56;4987526;28;97813;-75
2021/04/16 13:52:51;;;;;;;2.00;1.90;;;;;;;17.11;20.59;101965.94;4992922;28;96975;-75
2021/04/16 13:55:19;;;;;;;2.65;2.45;;;;;;;18.17;19.51;101964.53;4988862;28;97686;-76
2021/04/16 13:57:46;;;;;;;4.85;2.40;;;;;;;18.37;19.43;101954.81;4993088;28;97255;-77
2021/04/16 14:00:20;;;;;;;2.70;2.15;;;;;;;18.05;19.51;101962.59;4994612;28;100873;-76